Thursday, November 23, 2017, 7:14 PM EST
Back to Local

KMDT, Harrisburg International Airport

Location: Middletown, PA, United States Lat: 40.2
Local Time: 7:14 PM EST ( 0:14 GMT) Lon: -76.767
Time Zone: US/Eastern Elev: 308 ft

Show me the last for .
Show Decoded

2017-11-23 18:56 METAR KMDT 232356Z 12003KT 10SM SCT250 01/M04 A3003 RMK AO2 SLP173 T00111039
                 10056 21006 58003 =
2017-11-23 17:56 METAR KMDT 232256Z 00000KT 10SM BKN250 03/M02 A3004 RMK AO2 SLP177 T00281022 =
2017-11-23 16:56 METAR KMDT 232156Z 00000KT 10SM BKN250 04/M02 A3004 RMK AO2 SLP175 T00391022 =
2017-11-23 15:56 METAR KMDT 232056Z 00000KT 10SM BKN250 05/M04 A3004 RMK AO2 SLP175 T00501039
                 56014 =
2017-11-23 14:56 METAR KMDT 231956Z 30005KT 10SM BKN250 06/M05 A3004 RMK AO2 SLP176 T00561050 =
2017-11-23 13:56 METAR KMDT 231856Z 28005KT 10SM CLR 05/M05 A3006 RMK AO2 SLP183 T00501050 =
2017-11-23 12:56 METAR KMDT 231756Z 34008KT 10SM SCT150 05/M06 A3008 RMK AO2 SLP189 T00501056
                 10050 21022 58026 =
2017-11-23 11:56 METAR KMDT 231656Z 32007KT 280V350 10SM SCT150 04/M06 A3011 RMK AO2 SLP199
                 T00391056 =
2017-11-23 10:56 METAR KMDT 231556Z 29010KT 10SM SCT120 04/M06 A3014 RMK AO2 SLP209 T00391056 =
2017-11-23 09:56 METAR KMDT 231456Z 30005KT 10SM SCT120 02/M07 A3016 RMK AO2 SLP215 T00221067
                 50000 =
2017-11-23 08:56 METAR KMDT 231356Z 00000KT 10SM CLR 02/M06 A3016 RMK AO2 SLP218 T00171056 =
2017-11-23 07:56 METAR KMDT 231256Z 36003KT 10SM SCT120 M01/M05 A3017 RMK AO2 SLP219 T10111050 =
2017-11-23 06:56 METAR KMDT 231156Z 00000KT 10SM FEW100 M02/M07 A3016 RMK AO2 SLP216 T10221067
                 10006 21028 53009 =
2017-11-23 05:56 METAR KMDT 231056Z 31003KT 10SM CLR M02/M07 A3014 RMK AO2 SLP210 T10221072 =
2017-11-23 04:56 METAR KMDT 230956Z 00000KT 10SM FEW040 M01/M07 A3013 RMK AO2 SLP208 T10061072 =
2017-11-23 03:56 METAR KMDT 230856Z 33007KT 10SM FEW040 M01/M07 A3013 RMK AO2 SLP206 T10061072
                 56009 =
2017-11-23 02:56 METAR KMDT 230756Z 34008KT 10SM FEW040 00/M07 A3014 RMK AO2 SLP208 T00001067 =
2017-11-23 01:56 METAR KMDT 230656Z 33009KT 10SM FEW040 01/M07 A3015 RMK AO2 SLP212 T00061067 =
2017-11-23 00:56 METAR KMDT 230556Z 33004KT 10SM FEW041 01/M07 A3016 RMK AO2 SLP215 T00061067
                 10044 20006 56002 =
2017-11-22 23:56 METAR KMDT 230456Z 32009KT 10SM FEW043 01/M07 A3016 RMK AO2 SLP216 T00111067
                 401110011 =
2017-11-22 22:56 METAR KMDT 230356Z 33009KT 10SM FEW043 02/M06 A3016 RMK AO2 SLP215 T00171061 =
2017-11-22 21:56 METAR KMDT 230256Z 32011KT 10SM BKN044 03/M06 A3016 RMK AO2 SLP216 T00281061
                 53010 =
2017-11-22 20:56 METAR KMDT 230156Z 32017KT 10SM SCT044 03/M06 A3014 RMK AO2 SLP210 T00281056 =
2017-11-22 19:56 METAR KMDT 230056Z 32014G20KT 10SM BKN045 03/M06 A3014 RMK AO2 SLP211 T00331056
                 =

Support USWX by starting your Amazon purchase here.